GABS

Senou Airport

Senou, Mali
METAR GABS 201400Z 22003KT 9999 SCT020 32/23 Q1013 NOSIG
Observed Flight Rules
Jul-20 @ 14:00 UTC (43 minutes ago) Visual Flight Rules
Wind Visibility Clouds
220° at 3 knots 10,000+ meters
  • Scattered at 2,000' AGL
Temperatures Readings
Current 32°C / 90°F
Dewpoint 23°C / 73°F
Humidity 59%
Altimeter 29.91" Hg
Pressure 1013 hPa
Elevation 381
METAR GABS 201400Z 22003KT 9999 SCT020 32/23 Q1013 NOSIG
Observed Flight Rules
Jul-20 @ 14:00 UTC
(43 minutes ago)
VFR
Wind Visibility
220° at 3 knots 10,000+ meters
Clouds
  • Scattered at 2,000' AGL
Temperature Dewpoint
32°C / 90°F 23°C / 73°F
Humidity Altimeter Pressure
59% 29.91" Hg 1013 hPa